sensor_id;sensor_type;location;lat;lon;timestamp;pressure;altitude;pressure_sealevel;temperature
65316;BMP280;51920;53.952;10.292;2023-07-08T00:00:43;101835.84;;;15.48
65316;BMP280;51920;53.952;10.292;2023-07-08T00:03:14;101831.56;;;15.47
65316;BMP280;51920;53.952;10.292;2023-07-08T00:05:41;101830.34;;;15.44
65316;BMP280;51920;53.952;10.292;2023-07-08T00:08:17;101824.88;;;15.41
65316;BMP280;51920;53.952;10.292;2023-07-08T00:10:43;101827.22;;;15.39
65316;BMP280;51920;53.952;10.292;2023-07-08T00:13:10;101826.44;;;15.38
65316;BMP280;51920;53.952;10.292;2023-07-08T00:15:39;101819.03;;;15.32
65316;BMP280;51920;53.952;10.292;2023-07-08T00:18:14;101815.13;;;15.25
65316;BMP280;51920;53.952;10.292;2023-07-08T00:20:49;101822.09;;;15.19
65316;BMP280;51920;53.952;10.292;2023-07-08T00:23:16;101818.19;;;15.17
65316;BMP280;51920;53.952;10.292;2023-07-08T00:25:43;101817.47;;;15.20
65316;BMP280;51920;53.952;10.292;2023-07-08T00:28:10;101812.75;;;15.20
65316;BMP280;51920;53.952;10.292;2023-07-08T00:30:38;101810.00;;;15.13
65316;BMP280;51920;53.952;10.292;2023-07-08T00:33:06;101808.06;;;15.17
65316;BMP280;51920;53.952;10.292;2023-07-08T00:35:35;101811.19;;;15.19
65316;BMP280;51920;53.952;10.292;2023-07-08T00:38:14;101811.97;;;15.13
65316;BMP280;51920;53.952;10.292;2023-07-08T00:43:34;101810.72;;;14.99
65316;BMP280;51920;53.952;10.292;2023-07-08T00:51:42;101806.41;;;14.95
65316;BMP280;51920;53.952;10.292;2023-07-08T00:56:43;101795.06;;;14.86
65316;BMP280;51920;53.952;10.292;2023-07-08T00:59:18;101804.81;;;14.87
65316;BMP280;51920;53.952;10.292;2023-07-08T01:01:46;101797.41;;;14.83
65316;BMP280;51920;53.952;10.292;2023-07-08T01:04:28;101797.78;;;14.78
65316;BMP280;51920;53.952;10.292;2023-07-08T01:06:58;101798.13;;;14.73
65316;BMP280;51920;53.952;10.292;2023-07-08T01:09:35;101795.38;;;14.73
65316;BMP280;51920;53.952;10.292;2023-07-08T01:12:09;101798.13;;;14.73
65316;BMP280;51920;53.952;10.292;2023-07-08T01:14:38;101795.00;;;14.71
65316;BMP280;51920;53.952;10.292;2023-07-08T01:17:09;101797.69;;;14.68
65316;BMP280;51920;53.952;10.292;2023-07-08T01:19:44;101786.00;;;14.64
65316;BMP280;51920;53.952;10.292;2023-07-08T01:22:11;101788.75;;;14.67
65316;BMP280;51920;53.952;10.292;2023-07-08T01:24:41;101798.47;;;14.68
65316;BMP280;51920;53.952;10.292;2023-07-08T01:27:12;101793.88;;;14.72
65316;BMP280;51920;53.952;10.292;2023-07-08T01:29:40;101801.66;;;14.70
65316;BMP280;51920;53.952;10.292;2023-07-08T01:32:11;101796.13;;;14.63
65316;BMP280;51920;53.952;10.292;2023-07-08T01:34:46;101803.88;;;14.54
65316;BMP280;51920;53.952;10.292;2023-07-08T01:37:33;101796.06;;;14.49
65316;BMP280;51920;53.952;10.292;2023-07-08T01:40:24;101785.47;;;14.40
65316;BMP280;51920;53.952;10.292;2023-07-08T01:42:51;101792.50;;;14.41
65316;BMP280;51920;53.952;10.292;2023-07-08T01:45:21;101793.63;;;14.36
65316;BMP280;51920;53.952;10.292;2023-07-08T01:48:03;101792.09;;;14.35
65316;BMP280;51920;53.952;10.292;2023-07-08T01:50:35;101791.25;;;14.31
65316;BMP280;51920;53.952;10.292;2023-07-08T01:53:09;101781.91;;;14.29
65316;BMP280;51920;53.952;10.292;2023-07-08T01:55:37;101776.44;;;14.29
65316;BMP280;51920;53.952;10.292;2023-07-08T01:58:03;101778.81;;;14.30
65316;BMP280;51920;53.952;10.292;2023-07-08T02:00:30;101781.91;;;14.29
65316;BMP280;51920;53.952;10.292;2023-07-08T02:02:57;101785.06;;;14.34
65316;BMP280;51920;53.952;10.292;2023-07-08T02:05:24;101783.50;;;14.30
65316;BMP280;51920;53.952;10.292;2023-07-08T02:07:50;101776.81;;;14.27
65316;BMP280;51920;53.952;10.292;2023-07-08T02:10:17;101783.38;;;14.19
65316;BMP280;51920;53.952;10.292;2023-07-08T02:12:44;101780.59;;;14.08
65316;BMP280;51920;53.952;10.292;2023-07-08T02:15:11;101782.91;;;14.10
65316;BMP280;51920;53.952;10.292;2023-07-08T02:17:38;101785.25;;;14.08
65316;BMP280;51920;53.952;10.292;2023-07-08T02:20:05;101783.22;;;13.98
65316;BMP280;51920;53.952;10.292;2023-07-08T02:22:32;101780.44;;;13.94
65316;BMP280;51920;53.952;10.292;2023-07-08T02:24:59;101779.66;;;13.90
65316;BMP280;51920;53.952;10.292;2023-07-08T02:27:26;101778.84;;;13.86
65316;BMP280;51920;53.952;10.292;2023-07-08T02:29:52;101779.56;;;13.79
65316;BMP280;51920;53.952;10.292;2023-07-08T02:32:19;101772.59;;;13.82
65316;BMP280;51920;53.952;10.292;2023-07-08T02:34:46;101773.41;;;13.86
65316;BMP280;51920;53.952;10.292;2023-07-08T02:37:13;101778.47;;;13.87
65316;BMP280;51920;53.952;10.292;2023-07-08T02:39:39;101775.72;;;13.80
65316;BMP280;51920;53.952;10.292;2023-07-08T02:42:06;101769.78;;;13.74
65316;BMP280;51920;53.952;10.292;2023-07-08T02:44:33;101769.75;;;13.71
65316;BMP280;51920;53.952;10.292;2023-07-08T02:46:59;101771.34;;;13.75
65316;BMP280;51920;53.952;10.292;2023-07-08T02:49:28;101777.63;;;13.80
65316;BMP280;51920;53.952;10.292;2023-07-08T02:51:55;101770.56;;;13.75
65316;BMP280;51920;53.952;10.292;2023-07-08T02:54:21;101776.72;;;13.65
65316;BMP280;51920;53.952;10.292;2023-07-08T02:56:48;101780.56;;;13.60
65316;BMP280;51920;53.952;10.292;2023-07-08T02:59:15;101779.72;;;13.56
65316;BMP280;51920;53.952;10.292;2023-07-08T03:01:42;101779.34;;;13.54
65316;BMP280;51920;53.952;10.292;2023-07-08T03:04:10;101773.56;;;13.63
65316;BMP280;51920;53.952;10.292;2023-07-08T03:06:43;101772.78;;;13.62
65316;BMP280;51920;53.952;10.292;2023-07-08T03:09:12;101777.41;;;13.58
65316;BMP280;51920;53.952;10.292;2023-07-08T03:11:39;101771.25;;;13.65
65316;BMP280;51920;53.952;10.292;2023-07-08T03:14:07;101771.97;;;13.58
65316;BMP280;51920;53.952;10.292;2023-07-08T03:16:34;101778.94;;;13.56
65316;BMP280;51920;53.952;10.292;2023-07-08T03:19:01;101768.75;;;13.49
65316;BMP280;51920;53.952;10.292;2023-07-08T03:21:29;101773.03;;;13.46
65316;BMP280;51920;53.952;10.292;2023-07-08T03:23:56;101775.78;;;13.50
65316;BMP280;51920;53.952;10.292;2023-07-08T03:26:25;101781.28;;;13.53
65316;BMP280;51920;53.952;10.292;2023-07-08T03:28:54;101776.19;;;13.52
65316;BMP280;51920;53.952;10.292;2023-07-08T03:31:21;101783.59;;;13.55
65316;BMP280;51920;53.952;10.292;2023-07-08T03:33:48;101782.88;;;13.58
65316;BMP280;51920;53.952;10.292;2023-07-08T03:36:18;101780.56;;;13.64
65316;BMP280;51920;53.952;10.292;2023-07-08T03:39:00;101772.78;;;13.62
65316;BMP280;51920;53.952;10.292;2023-07-08T03:41:27;101774.41;;;13.67
65316;BMP280;51920;53.952;10.292;2023-07-08T03:43:54;101774.78;;;13.69
65316;BMP280;51920;53.952;10.292;2023-07-08T03:46:21;101773.31;;;13.75
65316;BMP280;51920;53.952;10.292;2023-07-08T03:48:51;101775.31;;;13.82
65316;BMP280;51920;53.952;10.292;2023-07-08T03:51:23;101781.19;;;13.87
65316;BMP280;51920;53.952;10.292;2023-07-08T03:53:50;101774.56;;;13.85
65316;BMP280;51920;53.952;10.292;2023-07-08T03:56:18;101790.97;;;13.92
65316;BMP280;51920;53.952;10.292;2023-07-08T03:58:45;101780.88;;;13.96
65316;BMP280;51920;53.952;10.292;2023-07-08T04:01:18;101785.94;;;13.98
65316;BMP280;51920;53.952;10.292;2023-07-08T04:03:45;101786.41;;;14.03
65316;BMP280;51920;53.952;10.292;2023-07-08T04:06:13;101787.97;;;14.08
65316;BMP280;51920;53.952;10.292;2023-07-08T04:08:40;101785.28;;;14.15
65316;BMP280;51920;53.952;10.292;2023-07-08T04:11:08;101782.25;;;14.24
65316;BMP280;51920;53.952;10.292;2023-07-08T04:13:36;101784.28;;;14.37
65316;BMP280;51920;53.952;10.292;2023-07-08T04:16:04;101781.66;;;14.48
65316;BMP280;51920;53.952;10.292;2023-07-08T04:18:31;101791.06;;;14.61
65316;BMP280;51920;53.952;10.292;2023-07-08T04:20:58;101773.97;;;14.79
65316;BMP280;51920;53.952;10.292;2023-07-08T04:23:28;101773.63;;;14.91
65316;BMP280;51920;53.952;10.292;2023-07-08T04:25:56;101774.09;;;15.04
65316;BMP280;51920;53.952;10.292;2023-07-08T04:28:23;101778.44;;;15.19
65316;BMP280;51920;53.952;10.292;2023-07-08T04:30:50;101783.91;;;15.34
65316;BMP280;51920;53.952;10.292;2023-07-08T04:33:17;101786.28;;;15.46
65316;BMP280;51920;53.952;10.292;2023-07-08T04:35:45;101786.69;;;15.55
65316;BMP280;51920;53.952;10.292;2023-07-08T04:38:20;101775.38;;;15.71
65316;BMP280;51920;53.952;10.292;2023-07-08T04:40:49;101777.69;;;15.94
65316;BMP280;51920;53.952;10.292;2023-07-08T04:43:18;101777.72;;;16.12
65316;BMP280;51920;53.952;10.292;2023-07-08T04:45:47;101773.00;;;16.30
65316;BMP280;51920;53.952;10.292;2023-07-08T04:48:17;101774.50;;;16.53
65316;BMP280;51920;53.952;10.292;2023-07-08T04:50:51;101775.56;;;16.77
65316;BMP280;51920;53.952;10.292;2023-07-08T04:53:21;101778.19;;;16.98
65316;BMP280;51920;53.952;10.292;2023-07-08T04:55:55;101785.47;;;17.23
65316;BMP280;51920;53.952;10.292;2023-07-08T04:58:22;101781.03;;;17.43
65316;BMP280;51920;53.952;10.292;2023-07-08T05:00:49;101783.97;;;17.67
65316;BMP280;51920;53.952;10.292;2023-07-08T05:03:16;101778.00;;;17.79
65316;BMP280;51920;53.952;10.292;2023-07-08T05:05:42;101775.06;;;18.01
65316;BMP280;51920;53.952;10.292;2023-07-08T05:08:09;101767.75;;;18.25
65316;BMP280;51920;53.952;10.292;2023-07-08T05:10:36;101765.66;;;18.36
65316;BMP280;51920;53.952;10.292;2023-07-08T05:13:03;101772.13;;;18.53
65316;BMP280;51920;53.952;10.292;2023-07-08T05:15:29;101778.94;;;18.68
65316;BMP280;51920;53.952;10.292;2023-07-08T05:17:56;101776.34;;;18.88
65316;BMP280;51920;53.952;10.292;2023-07-08T05:20:23;101771.91;;;18.98
65316;BMP280;51920;53.952;10.292;2023-07-08T05:22:50;101777.00;;;19.23
65316;BMP280;51920;53.952;10.292;2023-07-08T05:25:22;101778.22;;;19.45
65316;BMP280;51920;53.952;10.292;2023-07-08T05:27:48;101778.72;;;19.60
65316;BMP280;51920;53.952;10.292;2023-07-08T05:30:16;101778.00;;;19.80
65316;BMP280;51920;53.952;10.292;2023-07-08T05:32:44;101779.59;;;20.01
65316;BMP280;51920;53.952;10.292;2023-07-08T05:35:11;101770.00;;;20.09
65316;BMP280;51920;53.952;10.292;2023-07-08T05:37:38;101768.47;;;20.28
65316;BMP280;51920;53.952;10.292;2023-07-08T05:40:07;101775.59;;;20.61
65316;BMP280;51920;53.952;10.292;2023-07-08T05:42:35;101788.19;;;20.79
65316;BMP280;51920;53.952;10.292;2023-07-08T05:45:03;101778.13;;;21.05
65316;BMP280;51920;53.952;10.292;2023-07-08T05:47:30;101784.78;;;21.07
65316;BMP280;51920;53.952;10.292;2023-07-08T05:49:58;101782.28;;;21.13
65316;BMP280;51920;53.952;10.292;2023-07-08T05:52:24;101790.22;;;21.27
65316;BMP280;51920;53.952;10.292;2023-07-08T05:54:51;101783.81;;;21.47
65316;BMP280;51920;53.952;10.292;2023-07-08T05:57:18;101785.34;;;21.64
65316;BMP280;51920;53.952;10.292;2023-07-08T05:59:45;101787.38;;;21.89
65316;BMP280;51920;53.952;10.292;2023-07-08T06:02:12;101790.78;;;22.10
65316;BMP280;51920;53.952;10.292;2023-07-08T06:04:40;101793.88;;;22.24
65316;BMP280;51920;53.952;10.292;2023-07-08T06:07:08;101789.81;;;22.29
65316;BMP280;51920;53.952;10.292;2023-07-08T06:09:35;101790.16;;;22.57
65316;BMP280;51920;53.952;10.292;2023-07-08T06:12:02;101793.03;;;22.66
65316;BMP280;51920;53.952;10.292;2023-07-08T06:14:29;101789.28;;;22.85
65316;BMP280;51920;53.952;10.292;2023-07-08T06:16:58;101786.03;;;22.87
65316;BMP280;51920;53.952;10.292;2023-07-08T06:19:24;101783.50;;;22.92
65316;BMP280;51920;53.952;10.292;2023-07-08T06:21:53;101799.38;;;23.14
65316;BMP280;51920;53.952;10.292;2023-07-08T06:24:20;101797.63;;;23.20
65316;BMP280;51920;53.952;10.292;2023-07-08T06:26:47;101794.16;;;23.29
65316;BMP280;51920;53.952;10.292;2023-07-08T06:29:24;101799.84;;;23.47
65316;BMP280;51920;53.952;10.292;2023-07-08T06:31:51;101793.94;;;23.58
65316;BMP280;51920;53.952;10.292;2023-07-08T06:34:19;101794.72;;;23.80
65316;BMP280;51920;53.952;10.292;2023-07-08T06:36:45;101799.38;;;23.83
65316;BMP280;51920;53.952;10.292;2023-07-08T06:39:12;101809.56;;;23.96
65316;BMP280;51920;53.952;10.292;2023-07-08T06:41:39;101807.28;;;24.25
65316;BMP280;51920;53.952;10.292;2023-07-08T06:44:06;101808.44;;;24.46
65316;BMP280;51920;53.952;10.292;2023-07-08T06:46:34;101807.66;;;24.36
65316;BMP280;51920;53.952;10.292;2023-07-08T06:49:02;101806.09;;;24.35
65316;BMP280;51920;53.952;10.292;2023-07-08T06:51:29;101806.75;;;24.39
65316;BMP280;51920;53.952;10.292;2023-07-08T06:53:56;101797.31;;;24.28
65316;BMP280;51920;53.952;10.292;2023-07-08T06:56:23;101799.19;;;24.31
65316;BMP280;51920;53.952;10.292;2023-07-08T06:58:50;101800.06;;;24.68
65316;BMP280;51920;53.952;10.292;2023-07-08T07:01:17;101800.09;;;24.77
65316;BMP280;51920;53.952;10.292;2023-07-08T07:03:44;101793.72;;;24.58
65316;BMP280;51920;53.952;10.292;2023-07-08T07:06:11;101800.44;;;24.98
65316;BMP280;51920;53.952;10.292;2023-07-08T07:08:38;101802.78;;;25.08
65316;BMP280;51920;53.952;10.292;2023-07-08T07:11:04;101804.16;;;25.22
65316;BMP280;51920;53.952;10.292;2023-07-08T07:13:31;101796.63;;;25.23
65316;BMP280;51920;53.952;10.292;2023-07-08T07:15:59;101803.69;;;25.05
65316;BMP280;51920;53.952;10.292;2023-07-08T07:18:26;101801.38;;;25.31
65316;BMP280;51920;53.952;10.292;2023-07-08T07:20:54;101813.72;;;25.58
65316;BMP280;51920;53.952;10.292;2023-07-08T07:23:21;101812.75;;;25.79
65316;BMP280;51920;53.952;10.292;2023-07-08T07:25:48;101817.75;;;25.48
65316;BMP280;51920;53.952;10.292;2023-07-08T07:28:16;101799.38;;;25.59
65316;BMP280;51920;53.952;10.292;2023-07-08T07:30:46;101796.31;;;26.00
65316;BMP280;51920;53.952;10.292;2023-07-08T07:33:13;101800.22;;;25.84
65316;BMP280;51920;53.952;10.292;2023-07-08T07:35:44;101797.28;;;25.97
65316;BMP280;51920;53.952;10.292;2023-07-08T07:38:11;101799.41;;;26.11
65316;BMP280;51920;53.952;10.292;2023-07-08T07:40:39;101794.78;;;26.41
65316;BMP280;51920;53.952;10.292;2023-07-08T07:43:09;101801.06;;;26.51
65316;BMP280;51920;53.952;10.292;2023-07-08T07:45:36;101795.22;;;26.49
65316;BMP280;51920;53.952;10.292;2023-07-08T07:48:02;101794.69;;;26.36
65316;BMP280;51920;53.952;10.292;2023-07-08T07:50:30;101792.44;;;26.49
65316;BMP280;51920;53.952;10.292;2023-07-08T07:52:57;101794.03;;;26.65
65316;BMP280;51920;53.952;10.292;2023-07-08T07:55:24;101795.31;;;26.54
65316;BMP280;51920;53.952;10.292;2023-07-08T07:57:53;101796.53;;;26.87
65316;BMP280;51920;53.952;10.292;2023-07-08T08:00:20;101790.78;;;27.05
65316;BMP280;51920;53.952;10.292;2023-07-08T08:02:47;101787.72;;;27.03
65316;BMP280;51920;53.952;10.292;2023-07-08T08:05:15;101786.16;;;26.87
65316;BMP280;51920;53.952;10.292;2023-07-08T08:07:43;101782.81;;;27.37
65316;BMP280;51920;53.952;10.292;2023-07-08T08:10:10;101781.75;;;27.49
65316;BMP280;51920;53.952;10.292;2023-07-08T08:12:37;101778.19;;;27.34
65316;BMP280;51920;53.952;10.292;2023-07-08T08:15:10;101790.22;;;27.40
65316;BMP280;51920;53.952;10.292;2023-07-08T08:17:37;101779.91;;;27.31
65316;BMP280;51920;53.952;10.292;2023-07-08T08:20:04;101787.44;;;27.40
65316;BMP280;51920;53.952;10.292;2023-07-08T08:22:31;101781.28;;;27.65
65316;BMP280;51920;53.952;10.292;2023-07-08T08:24:58;101784.31;;;27.67
65316;BMP280;51920;53.952;10.292;2023-07-08T08:27:24;101790.25;;;27.90
65316;BMP280;51920;53.952;10.292;2023-07-08T08:29:51;101790.25;;;27.90
65316;BMP280;51920;53.952;10.292;2023-07-08T08:32:18;101788.94;;;27.70
65316;BMP280;51920;53.952;10.292;2023-07-08T08:34:45;101790.47;;;27.71
65316;BMP280;51920;53.952;10.292;2023-07-08T08:37:12;101780.03;;;27.37
65316;BMP280;51920;53.952;10.292;2023-07-08T08:39:39;101775.50;;;27.24
65316;BMP280;51920;53.952;10.292;2023-07-08T08:42:18;101791.03;;;27.75
65316;BMP280;51920;53.952;10.292;2023-07-08T08:44:46;101782.94;;;27.18
65316;BMP280;51920;53.952;10.292;2023-07-08T08:47:21;101788.78;;;27.59
65316;BMP280;51920;53.952;10.292;2023-07-08T08:49:57;101787.72;;;27.03
65316;BMP280;51920;53.952;10.292;2023-07-08T08:52:27;101780.06;;;26.98
65316;BMP280;51920;53.952;10.292;2023-07-08T08:54:53;101768.59;;;27.35
65316;BMP280;51920;53.952;10.292;2023-07-08T08:57:36;101776.84;;;27.73
65316;BMP280;51920;53.952;10.292;2023-07-08T09:00:04;101775.09;;;27.91
65316;BMP280;51920;53.952;10.292;2023-07-08T09:02:42;101777.53;;;28.18
65316;BMP280;51920;53.952;10.292;2023-07-08T09:05:13;101776.16;;;27.78
65316;BMP280;51920;53.952;10.292;2023-07-08T09:08:05;101773.94;;;27.68
65316;BMP280;51920;53.952;10.292;2023-07-08T09:10:47;101772.19;;;28.00
65316;BMP280;51920;53.952;10.292;2023-07-08T09:13:21;101786.09;;;28.35
65316;BMP280;51920;53.952;10.292;2023-07-08T09:15:54;101767.91;;;28.40
65316;BMP280;51920;53.952;10.292;2023-07-08T09:18:32;101780.84;;;27.87
65316;BMP280;51920;53.952;10.292;2023-07-08T09:21:05;101773.06;;;27.91
65316;BMP280;51920;53.952;10.292;2023-07-08T09:23:37;101770.34;;;28.32
65316;BMP280;51920;53.952;10.292;2023-07-08T09:26:07;101774.91;;;27.79
65316;BMP280;51920;53.952;10.292;2023-07-08T09:28:44;101777.28;;;28.01
65316;BMP280;51920;53.952;10.292;2023-07-08T09:31:32;101776.56;;;28.21
65316;BMP280;51920;53.952;10.292;2023-07-08T09:34:12;101780.16;;;28.27
65316;BMP280;51920;53.952;10.292;2023-07-08T09:36:45;101774.03;;;28.23
65316;BMP280;51920;53.952;10.292;2023-07-08T09:39:16;101768.19;;;28.42
65316;BMP280;51920;53.952;10.292;2023-07-08T09:41:47;101768.38;;;28.38
65316;BMP280;51920;53.952;10.292;2023-07-08T09:47:20;101786.31;;;28.72
65316;BMP280;51920;53.952;10.292;2023-07-08T09:49:48;101778.78;;;28.78
65316;BMP280;51920;53.952;10.292;2023-07-08T09:52:16;101775.88;;;28.47
65316;BMP280;51920;53.952;10.292;2023-07-08T09:54:44;101763.41;;;28.42
65316;BMP280;51920;53.952;10.292;2023-07-08T09:59:46;101769.75;;;28.63
65316;BMP280;51920;53.952;10.292;2023-07-08T10:02:49;101782.63;;;28.81
65316;BMP280;51920;53.952;10.292;2023-07-08T10:05:28;101778.53;;;29.02
65316;BMP280;51920;53.952;10.292;2023-07-08T10:07:57;101775.97;;;28.78
65316;BMP280;51920;53.952;10.292;2023-07-08T10:10:34;101776.97;;;28.75
65316;BMP280;51920;53.952;10.292;2023-07-08T10:13:22;101774.56;;;28.07
65316;BMP280;51920;53.952;10.292;2023-07-08T10:15:56;101764.09;;;28.37
65316;BMP280;51920;53.952;10.292;2023-07-08T10:18:31;101761.09;;;28.61
65316;BMP280;51920;53.952;10.292;2023-07-08T10:30:14;101767.97;;;29.12
65316;BMP280;51920;53.952;10.292;2023-07-08T10:33:09;101762.09;;;28.58
65316;BMP280;51920;53.952;10.292;2023-07-08T10:35:47;101765.53;;;28.12
65316;BMP280;51920;53.952;10.292;2023-07-08T10:38:34;101771.63;;;28.51
65316;BMP280;51920;53.952;10.292;2023-07-08T10:44:03;101774.84;;;28.91
65316;BMP280;51920;53.952;10.292;2023-07-08T10:52:33;101763.59;;;28.79
65316;BMP280;51920;53.952;10.292;2023-07-08T11:00:54;101770.97;;;28.42
65316;BMP280;51920;53.952;10.292;2023-07-08T11:03:54;101769.41;;;28.56
65316;BMP280;51920;53.952;10.292;2023-07-08T11:06:41;101772.22;;;28.82
65316;BMP280;51920;53.952;10.292;2023-07-08T11:09:15;101761.50;;;28.74
65316;BMP280;51920;53.952;10.292;2023-07-08T11:12:00;101762.59;;;28.42
65316;BMP280;51920;53.952;10.292;2023-07-08T11:14:42;101766.03;;;27.96
65316;BMP280;51920;53.952;10.292;2023-07-08T11:17:22;101757.69;;;27.96
65316;BMP280;51920;53.952;10.292;2023-07-08T11:19:57;101760.72;;;28.13
65316;BMP280;51920;53.952;10.292;2023-07-08T11:22:29;101757.19;;;28.12
65316;BMP280;51920;53.952;10.292;2023-07-08T11:24:58;101752.81;;;27.91
65316;BMP280;51920;53.952;10.292;2023-07-08T11:27:29;101744.63;;;28.22
65316;BMP280;51920;53.952;10.292;2023-07-08T11:30:05;101748.66;;;28.42
65316;BMP280;51920;53.952;10.292;2023-07-08T11:32:33;101744.78;;;28.34
65316;BMP280;51920;53.952;10.292;2023-07-08T11:35:04;101732.16;;;28.18
65316;BMP280;51920;53.952;10.292;2023-07-08T11:37:32;101742.81;;;28.60
65316;BMP280;51920;53.952;10.292;2023-07-08T11:42:44;101736.44;;;28.34
65316;BMP280;51920;53.952;10.292;2023-07-08T11:45:26;101732.38;;;28.55
65316;BMP280;51920;53.952;10.292;2023-07-08T11:48:04;101729.53;;;28.49
65316;BMP280;51920;53.952;10.292;2023-07-08T11:50:35;101745.13;;;28.41
65316;BMP280;51920;53.952;10.292;2023-07-08T11:53:58;101723.19;;;28.28
65316;BMP280;51920;53.952;10.292;2023-07-08T11:55:59;101728.53;;;28.12
65316;BMP280;51920;53.952;10.292;2023-07-08T11:58:49;101736.78;;;28.21
65316;BMP280;51920;53.952;10.292;2023-07-08T12:01:23;101727.88;;;28.22
65316;BMP280;51920;53.952;10.292;2023-07-08T12:09:27;101712.41;;;28.16
65316;BMP280;51920;53.952;10.292;2023-07-08T12:12:06;101710.75;;;28.29
65316;BMP280;51920;53.952;10.292;2023-07-08T12:14:34;101719.97;;;28.15
65316;BMP280;51920;53.952;10.292;2023-07-08T12:17:00;101708.41;;;28.02
65316;BMP280;51920;53.952;10.292;2023-07-08T12:19:28;101717.13;;;27.74
65316;BMP280;51920;53.952;10.292;2023-07-08T12:21:59;101719.94;;;27.95
65316;BMP280;51920;53.952;10.292;2023-07-08T12:24:26;101707.63;;;28.01
65316;BMP280;51920;53.952;10.292;2023-07-08T12:26:54;101712.00;;;27.88
65316;BMP280;51920;53.952;10.292;2023-07-08T12:29:21;101713.31;;;27.92
65316;BMP280;51920;53.952;10.292;2023-07-08T12:31:48;101714.84;;;27.58
65316;BMP280;51920;53.952;10.292;2023-07-08T12:34:16;101717.34;;;27.56
65316;BMP280;51920;53.952;10.292;2023-07-08T12:36:44;101706.38;;;27.67
65316;BMP280;51920;53.952;10.292;2023-07-08T12:39:14;101712.63;;;27.97
65316;BMP280;51920;53.952;10.292;2023-07-08T12:41:43;101712.22;;;28.04
65316;BMP280;51920;53.952;10.292;2023-07-08T12:44:17;101707.22;;;28.09
65316;BMP280;51920;53.952;10.292;2023-07-08T12:46:46;101706.09;;;28.00
65316;BMP280;51920;53.952;10.292;2023-07-08T12:49:15;101711.06;;;28.11
65316;BMP280;51920;53.952;10.292;2023-07-08T12:51:43;101704.56;;;27.99
65316;BMP280;51920;53.952;10.292;2023-07-08T12:54:11;101707.28;;;27.94
65316;BMP280;51920;53.952;10.292;2023-07-08T12:56:40;101701.41;;;27.92
65316;BMP280;51920;53.952;10.292;2023-07-08T12:59:13;101700.75;;;27.97
65316;BMP280;51920;53.952;10.292;2023-07-08T13:01:40;101704.66;;;27.70
65316;BMP280;51920;53.952;10.292;2023-07-08T13:04:10;101685.91;;;27.70
65316;BMP280;51920;53.952;10.292;2023-07-08T13:06:39;101704.84;;;27.66
65316;BMP280;51920;53.952;10.292;2023-07-08T13:09:23;101691.88;;;27.63
65316;BMP280;51920;53.952;10.292;2023-07-08T13:11:54;101695.56;;;27.90
65316;BMP280;51920;53.952;10.292;2023-07-08T13:14:22;101691.22;;;27.68
65316;BMP280;51920;53.952;10.292;2023-07-08T13:16:50;101679.19;;;27.77
65316;BMP280;51920;53.952;10.292;2023-07-08T13:19:17;101687.75;;;27.73
65316;BMP280;51920;53.952;10.292;2023-07-08T13:21:46;101701.38;;;27.71
65316;BMP280;51920;53.952;10.292;2023-07-08T13:24:13;101684.44;;;27.90
65316;BMP280;51920;53.952;10.292;2023-07-08T13:26:44;101684.75;;;27.77
65316;BMP280;51920;53.952;10.292;2023-07-08T13:29:17;101677.56;;;27.70
65316;BMP280;51920;53.952;10.292;2023-07-08T13:31:56;101690.31;;;27.77
65316;BMP280;51920;53.952;10.292;2023-07-08T13:34:28;101675.81;;;27.73
65316;BMP280;51920;53.952;10.292;2023-07-08T13:36:55;101674.31;;;27.72
65316;BMP280;51920;53.952;10.292;2023-07-08T13:39:29;101676.41;;;27.77
65316;BMP280;51920;53.952;10.292;2023-07-08T13:41:57;101678.69;;;27.78
65316;BMP280;51920;53.952;10.292;2023-07-08T13:44:26;101669.81;;;27.95
65316;BMP280;51920;53.952;10.292;2023-07-08T13:46:56;101652.75;;;27.52
65316;BMP280;51920;53.952;10.292;2023-07-08T13:49:39;101679.34;;;27.53
65316;BMP280;51920;53.952;10.292;2023-07-08T13:58:02;101670.94;;;27.33
65316;BMP280;51920;53.952;10.292;2023-07-08T14:00:29;101683.75;;;27.45
65316;BMP280;51920;53.952;10.292;2023-07-08T14:02:57;101680.41;;;27.11
65316;BMP280;51920;53.952;10.292;2023-07-08T14:05:58;101685.03;;;27.14
65316;BMP280;51920;53.952;10.292;2023-07-08T14:08:27;101661.31;;;27.04
65316;BMP280;51920;53.952;10.292;2023-07-08T14:10:53;101688.06;;;27.16
65316;BMP280;51920;53.952;10.292;2023-07-08T14:13:21;101658.34;;;27.08
65316;BMP280;51920;53.952;10.292;2023-07-08T14:15:51;101677.31;;;27.09
65316;BMP280;51920;53.952;10.292;2023-07-08T14:18:18;101677.41;;;27.15
65316;BMP280;51920;53.952;10.292;2023-07-08T14:20:48;101652.19;;;26.89
65316;BMP280;51920;53.952;10.292;2023-07-08T14:23:17;101668.13;;;27.03
65316;BMP280;51920;53.952;10.292;2023-07-08T14:25:45;101637.91;;;26.81
65316;BMP280;51920;53.952;10.292;2023-07-08T14:28:11;101673.09;;;26.99
65316;BMP280;51920;53.952;10.292;2023-07-08T23:37:47;101703.41;;;18.87
65316;BMP280;51920;53.952;10.292;2023-07-08T23:40:15;101693.38;;;18.77
65316;BMP280;51920;53.952;10.292;2023-07-08T23:42:43;101701.63;;;18.73
65316;BMP280;51920;53.952;10.292;2023-07-08T23:45:12;101699.94;;;18.83
65316;BMP280;51920;53.952;10.292;2023-07-08T23:47:40;101714.59;;;18.73
65316;BMP280;51920;53.952;10.292;2023-07-08T23:50:18;101718.34;;;18.86
65316;BMP280;51920;53.952;10.292;2023-07-08T23:52:49;101718.41;;;18.79
65316;BMP280;51920;53.952;10.292;2023-07-08T23:55:15;101728.38;;;18.69
65316;BMP280;51920;53.952;10.292;2023-07-08T23:57:43;101726.34;;;18.73
